Time;durP1;ratioP1;P1;durP2;ratioP2;P2;SDS_P1;SDS_P2;PMS_P1;PMS_P2;Temp;Humidity;BMP_temperature;BMP_pressure;BME280_temperature;BME280_humidity;BME280_pressure;Samples;Min_cycle;Max_cycle;Signal;HPM_P1;HPM_P2
2022/10/06 00:01:22;;;;;;;8.73;2.10;;;14.20;99.90;;;;;;6191860;22;20031;-79
2022/10/06 00:03:48;;;;;;;9.23;2.10;;;14.20;99.90;;;;;;6241024;22;20339;-78
2022/10/06 00:06:15;;;;;;;8.45;2.38;;;14.20;99.90;;;;;;6190259;22;20023;-79
2022/10/06 00:08:42;;;;;;;9.23;2.53;;;14.20;99.90;;;;;;6240971;22;20041;-79
2022/10/06 00:11:10;;;;;;;7.93;1.90;;;14.20;99.90;;;;;;6192134;22;20565;-79
2022/10/06 00:13:36;;;;;;;7.80;1.70;;;14.20;99.90;;;;;;6216151;22;20351;-79
2022/10/06 00:16:09;;;;;;;10.60;2.33;;;14.20;99.90;;;;;;6215629;22;20064;-78
2022/10/06 00:18:35;;;;;;;9.95;2.22;;;14.20;99.90;;;;;;6216411;22;20015;-79
2022/10/06 00:21:02;;;;;;;8.98;2.35;;;14.20;99.90;;;;;;6215329;22;20026;-79
2022/10/06 00:23:29;;;;;;;6.82;2.17;;;14.20;99.90;;;;;;6218484;22;20019;-79
2022/10/06 00:25:55;;;;;;;8.65;2.13;;;14.10;99.90;;;;;;6242099;22;20107;-78
2022/10/06 00:28:21;;;;;;;9.18;1.70;;;14.10;99.90;;;;;;6217386;22;20026;-79
2022/10/06 00:30:47;;;;;;;10.20;2.03;;;14.10;99.90;;;;;;6242816;22;20016;-79
2022/10/06 00:33:15;;;;;;;6.53;1.60;;;14.10;99.90;;;;;;6242746;22;20058;-79
2022/10/06 00:35:42;;;;;;;8.25;1.92;;;14.10;99.90;;;;;;6216160;22;20084;-78
2022/10/06 00:38:11;;;;;;;8.27;1.80;;;14.10;99.90;;;;;;6243868;22;20024;-78
2022/10/06 00:40:46;;;;;;;9.10;1.98;;;14.10;99.90;;;;;;6243144;22;20103;-79
2022/10/06 00:43:46;;;;;;;10.50;2.33;;;14.10;99.90;;;;;;6242988;22;20012;-78
2022/10/06 00:46:32;;;;;;;8.50;2.20;;;14.10;99.90;;;;;;6243619;22;20091;-79
2022/10/06 00:49:21;;;;;;;10.18;2.10;;;14.10;99.90;;;;;;6218055;22;20015;-78
2022/10/06 00:51:51;;;;;;;8.23;2.20;;;14.00;99.90;;;;;;6223165;22;20015;-79
2022/10/06 00:54:18;;;;;;;10.48;2.25;;;14.10;99.90;;;;;;6269553;22;20024;-79
2022/10/06 00:56:44;;;;;;;10.40;2.65;;;14.10;99.90;;;;;;6218070;22;20019;-79
2022/10/06 00:59:16;;;;;;;10.32;1.85;;;14.00;99.90;;;;;;6218689;22;20344;-79
2022/10/06 01:01:52;;;;;;;13.23;2.10;;;14.10;99.90;;;;;;6270575;22;20341;-80
2022/10/06 01:04:19;;;;;;;8.60;1.77;;;14.10;99.90;;;;;;6243448;22;20502;-79
2022/10/06 01:06:50;;;;;;;9.85;1.90;;;14.00;99.90;;;;;;6244210;22;20023;-79
2022/10/06 01:09:17;;;;;;;10.73;1.92;;;14.00;99.90;;;;;;6243311;22;20522;-79
2022/10/06 01:11:46;;;;;;;10.07;2.10;;;14.00;99.90;;;;;;6218956;22;20318;-79
2022/10/06 01:14:12;;;;;;;9.82;1.85;;;14.00;99.90;;;;;;6198557;22;20023;-79
2022/10/06 01:16:41;;;;;;;9.60;1.90;;;13.90;99.90;;;;;;6230807;22;20447;-78
2022/10/06 01:19:15;;;;;;;7.68;1.95;;;13.90;99.90;;;;;;6247579;22;20026;-78
2022/10/06 01:21:46;;;;;;;9.95;2.03;;;13.90;99.90;;;;;;6240706;22;20077;-78
2022/10/06 01:24:12;;;;;;;14.35;2.38;;;13.80;99.90;;;;;;6245963;22;20079;-78
2022/10/06 01:26:41;;;;;;;6.97;2.05;;;13.80;99.90;;;;;;6218340;22;20030;-78
2022/10/06 01:29:08;;;;;;;10.80;1.98;;;13.90;99.90;;;;;;6241501;22;20026;-79
2022/10/06 01:31:34;;;;;;;8.73;1.67;;;13.80;99.90;;;;;;6243668;22;20500;-79
2022/10/06 01:34:00;;;;;;;12.02;2.25;;;13.80;99.90;;;;;;6240935;22;20098;-79
2022/10/06 01:36:25;;;;;;;9.50;2.03;;;13.80;99.90;;;;;;6268262;22;20093;-78
2022/10/06 01:38:51;;;;;;;10.35;2.30;;;13.80;99.90;;;;;;6267979;22;20047;-78
2022/10/06 01:41:17;;;;;;;11.05;2.30;;;13.90;99.90;;;;;;6217315;22;20020;-78
2022/10/06 01:43:42;;;;;;;10.00;1.67;;;13.90;99.90;;;;;;6242375;22;20015;-78
2022/10/06 01:46:08;;;;;;;15.05;2.40;;;13.80;99.90;;;;;;6217259;22;20061;-79
2022/10/06 01:48:35;;;;;;;10.00;2.10;;;13.90;99.90;;;;;;6217878;22;20054;-79
2022/10/06 01:51:01;;;;;;;13.60;2.00;;;13.90;99.90;;;;;;6242802;22;20029;-78
2022/10/06 01:53:26;;;;;;;9.25;2.40;;;13.90;99.90;;;;;;6242730;22;20034;-78
2022/10/06 01:55:57;;;;;;;6.95;2.00;;;13.90;99.90;;;;;;6267341;22;20019;-79
2022/10/06 01:58:23;;;;;;;12.10;2.30;;;13.90;99.90;;;;;;6269035;22;20447;-78
2022/10/06 02:00:49;;;;;;;11.40;1.90;;;13.80;99.90;;;;;;6242416;22;20023;-78
2022/10/06 02:03:15;;;;;;;12.65;2.55;;;13.80;99.90;;;;;;6192270;22;20106;-79
2022/10/06 02:05:41;;;;;;;9.68;2.10;;;13.80;99.90;;;;;;6218229;22;20113;-78
2022/10/06 02:08:08;;;;;;;8.82;1.90;;;13.70;99.90;;;;;;6242270;22;20015;-78
2022/10/06 02:10:34;;;;;;;9.90;1.70;;;13.70;99.90;;;;;;6267703;22;20012;-79
2022/10/06 02:13:00;;;;;;;11.07;1.80;;;13.70;99.90;;;;;;6266877;22;20020;-79
2022/10/06 02:15:27;;;;;;;7.43;2.20;;;13.70;99.90;;;;;;6242144;22;20023;-79
2022/10/06 02:17:54;;;;;;;16.13;2.30;;;13.70;99.90;;;;;;6242937;22;20012;-79
2022/10/06 02:20:20;;;;;;;8.18;1.88;;;13.80;99.90;;;;;;6242273;22;20359;-79
2022/10/06 02:22:46;;;;;;;8.68;1.80;;;13.80;99.90;;;;;;6268415;22;20168;-79
2022/10/06 02:25:12;;;;;;;9.75;2.35;;;13.70;99.90;;;;;;6217541;22;20501;-79
2022/10/06 02:27:38;;;;;;;11.60;2.13;;;13.80;99.90;;;;;;6267347;22;20012;-79
2022/10/06 02:30:06;;;;;;;10.77;2.28;;;13.80;99.90;;;;;;6241352;22;20026;-79
2022/10/06 02:32:34;;;;;;;9.95;2.13;;;13.80;99.90;;;;;;6241937;22;20116;-79
2022/10/06 02:35:00;;;;;;;9.65;2.20;;;13.80;99.90;;;;;;6266088;22;20023;-79
2022/10/06 02:37:25;;;;;;;6.57;1.50;;;13.80;99.90;;;;;;6243024;22;20023;-78
2022/10/06 02:39:51;;;;;;;8.20;1.67;;;13.80;99.90;;;;;;6241302;22;20114;-79
2022/10/06 02:42:18;;;;;;;9.38;1.83;;;13.80;99.90;;;;;;6216446;22;20020;-78
2022/10/06 02:44:44;;;;;;;11.32;2.28;;;13.80;99.90;;;;;;6241573;22;20019;-78
2022/10/06 02:47:13;;;;;;;10.48;2.28;;;13.80;99.90;;;;;;6216317;22;20024;-79
2022/10/06 02:49:39;;;;;;;9.23;1.75;;;13.80;99.90;;;;;;6267487;22;20061;-79
2022/10/06 02:52:04;;;;;;;9.82;2.30;;;13.80;99.90;;;;;;6267101;22;20020;-79
2022/10/06 02:54:32;;;;;;;8.82;1.52;;;13.70;99.90;;;;;;6242116;22;20145;-79
2022/10/06 02:56:58;;;;;;;7.15;2.20;;;13.70;99.90;;;;;;6267933;22;20023;-79
2022/10/06 02:59:24;;;;;;;9.88;1.90;;;13.70;99.90;;;;;;6242203;22;20015;-78
2022/10/06 03:01:50;;;;;;;8.10;2.03;;;13.70;99.90;;;;;;6217507;22;20026;-79
2022/10/06 03:04:16;;;;;;;7.05;1.95;;;13.60;99.90;;;;;;6191192;22;20385;-79
2022/10/06 03:06:42;;;;;;;9.70;1.80;;;13.60;99.90;;;;;;6268418;22;20026;-79
2022/10/06 03:09:09;;;;;;;5.82;1.77;;;13.70;99.90;;;;;;6216692;22;20012;-79
2022/10/06 03:11:39;;;;;;;9.90;1.83;;;13.60;99.90;;;;;;6242548;22;20075;-79
2022/10/06 03:14:06;;;;;;;12.98;1.98;;;13.60;99.90;;;;;;6266905;22;20019;-79
2022/10/06 03:16:34;;;;;;;10.55;2.00;;;13.60;99.90;;;;;;6268297;22;20077;-79
2022/10/06 03:19:02;;;;;;;7.20;1.85;;;13.60;99.90;;;;;;6267045;22;20442;-79
2022/10/06 03:21:37;;;;;;;7.82;1.88;;;13.60;99.90;;;;;;6267263;22;20023;-79
2022/10/06 03:24:03;;;;;;;13.38;2.33;;;13.60;99.90;;;;;;6241107;22;20023;-78
2022/10/06 03:26:37;;;;;;;11.25;2.13;;;13.60;99.90;;;;;;6267380;22;20023;-80
2022/10/06 03:29:03;;;;;;;11.05;2.13;;;13.60;99.90;;;;;;6241039;22;20019;-78
2022/10/06 03:31:30;;;;;;;13.50;2.13;;;13.50;99.90;;;;;;6267328;22;20428;-78
2022/10/06 03:33:56;;;;;;;8.32;2.40;;;13.50;99.90;;;;;;6215807;22;20028;-79
2022/10/06 03:36:24;;;;;;;14.02;2.92;;;13.50;99.90;;;;;;6241938;22;20051;-79
2022/10/06 03:38:50;;;;;;;11.32;2.00;;;13.50;99.90;;;;;;6241254;22;20470;-79
2022/10/06 03:41:27;;;;;;;9.90;1.88;;;13.50;99.90;;;;;;6241251;22;20852;-79
2022/10/06 03:43:55;;;;;;;10.18;2.55;;;13.50;99.90;;;;;;6242556;22;20020;-79
2022/10/06 03:46:22;;;;;;;9.75;2.22;;;13.60;99.90;;;;;;6215900;22;20015;-79
2022/10/06 03:48:49;;;;;;;9.07;2.22;;;13.60;99.90;;;;;;6267054;22;20019;-79
2022/10/06 03:51:20;;;;;;;10.75;2.47;;;13.60;99.90;;;;;;6241305;22;20053;-78
2022/10/06 03:53:49;;;;;;;10.43;2.40;;;13.60;99.90;;;;;;6240600;22;20030;-78
2022/10/06 03:56:14;;;;;;;5.90;1.92;;;13.60;99.90;;;;;;6265809;22;20536;-79
2022/10/06 03:58:42;;;;;;;16.50;2.83;;;13.60;99.90;;;;;;6266428;22;20045;-79
2022/10/06 04:01:14;;;;;;;8.35;2.22;;;13.60;99.90;;;;;;6215946;22;20020;-79
2022/10/06 04:03:39;;;;;;;8.43;2.30;;;13.60;99.90;;;;;;6266868;22;20012;-79
2022/10/06 04:06:10;;;;;;;11.38;2.28;;;13.60;99.90;;;;;;6241617;22;20336;-79
2022/10/06 04:08:37;;;;;;;10.35;2.25;;;13.60;99.90;;;;;;6242394;22;20494;-79
2022/10/06 04:11:21;;;;;;;14.18;2.67;;;13.50;99.90;;;;;;6265833;22;20447;-79
2022/10/06 04:13:51;;;;;;;8.05;2.10;;;13.50;99.90;;;;;;6241237;22;20015;-79
2022/10/06 04:16:22;;;;;;;8.82;2.30;;;13.50;99.90;;;;;;6266548;22;20020;-79
2022/10/06 04:18:50;;;;;;;13.38;2.53;;;13.50;99.90;;;;;;6241375;22;20023;-79
2022/10/06 04:21:17;;;;;;;12.18;2.40;;;13.50;99.90;;;;;;6241187;22;20023;-79
2022/10/06 04:23:42;;;;;;;11.10;2.03;;;13.50;99.90;;;;;;6241188;22;20051;-79
2022/10/06 04:26:14;;;;;;;12.57;2.72;;;13.50;99.90;;;;;;6241003;22;20023;-80
2022/10/06 04:28:42;;;;;;;10.73;2.70;;;13.50;99.90;;;;;;6266249;22;20336;-79
2022/10/06 04:31:18;;;;;;;8.57;2.15;;;13.50;99.90;;;;;;6241520;22;20443;-79
2022/10/06 04:33:45;;;;;;;12.00;2.80;;;13.50;99.90;;;;;;6241743;22;20030;-79
2022/10/06 04:36:22;;;;;;;10.77;2.28;;;13.50;99.90;;;;;;6241148;22;20721;-79
2022/10/06 04:38:50;;;;;;;11.52;2.40;;;13.50;99.90;;;;;;6267060;22;20031;-79
2022/10/06 04:41:18;;;;;;;9.70;2.45;;;13.50;99.90;;;;;;6215876;22;20031;-79
2022/10/06 04:43:45;;;;;;;12.55;2.15;;;13.50;99.90;;;;;;6266948;22;20016;-79
2022/10/06 04:46:12;;;;;;;9.30;2.30;;;13.50;99.90;;;;;;6241020;22;20020;-79
2022/10/06 04:48:37;;;;;;;12.70;2.13;;;13.50;99.90;;;;;;6267041;22;20026;-79
2022/10/06 04:51:06;;;;;;;13.57;2.50;;;13.50;99.90;;;;;;6216843;22;20390;-79
2022/10/06 04:53:32;;;;;;;11.73;2.33;;;13.50;99.90;;;;;;6272460;22;20024;-79
2022/10/06 04:56:23;;;;;;;12.38;2.08;;;13.60;99.90;;;;;;6251594;22;20023;-79
2022/10/06 04:58:50;;;;;;;8.32;1.83;;;13.60;99.90;;;;;;6243883;22;20430;-79
2022/10/06 05:01:20;;;;;;;10.55;1.83;;;13.60;99.90;;;;;;6267234;22;20684;-79
2022/10/06 05:03:48;;;;;;;8.05;2.15;;;13.70;99.90;;;;;;6266705;22;20019;-79
2022/10/06 05:06:26;;;;;;;8.10;1.98;;;13.60;99.90;;;;;;6216446;22;20019;-79
2022/10/06 05:08:54;;;;;;;11.25;1.90;;;13.60;99.90;;;;;;6243126;22;20011;-79
2022/10/06 05:11:20;;;;;;;6.85;2.05;;;13.60;99.90;;;;;;6267883;22;20016;-79
2022/10/06 05:13:46;;;;;;;13.00;2.22;;;13.60;99.90;;;;;;6267780;22;20082;-79
2022/10/06 05:16:14;;;;;;;9.95;2.20;;;13.60;99.90;;;;;;6242423;22;20027;-79
2022/10/06 05:18:39;;;;;;;8.52;2.47;;;13.60;99.90;;;;;;6217156;22;20014;-78
2022/10/06 05:21:20;;;;;;;9.48;2.38;;;13.50;99.90;;;;;;6217682;22;20410;-79
2022/10/06 05:23:46;;;;;;;12.20;2.40;;;13.50;99.90;;;;;;6268191;22;20026;-80
2022/10/06 05:26:24;;;;;;;9.38;2.35;;;13.50;99.90;;;;;;6268280;22;20020;-79
2022/10/06 05:28:49;;;;;;;14.77;3.60;;;13.50;99.90;;;;;;6243903;22;20015;-79
2022/10/06 05:31:26;;;;;;;13.38;3.20;;;13.50;99.90;;;;;;6243029;22;20085;-81
2022/10/06 05:33:53;;;;;;;8.65;2.10;;;13.40;99.90;;;;;;6268417;22;20022;-81
2022/10/06 05:36:21;;;;;;;10.70;1.95;;;13.40;99.90;;;;;;6242576;22;20023;-81
2022/10/06 05:38:47;;;;;;;8.63;2.00;;;13.40;99.90;;;;;;6242879;22;20018;-81
2022/10/06 05:41:15;;;;;;;11.30;2.05;;;13.40;99.90;;;;;;6216707;22;20026;-79
2022/10/06 05:43:42;;;;;;;11.80;2.30;;;13.40;99.90;;;;;;6267941;22;20015;-79
2022/10/06 05:46:16;;;;;;;10.10;2.55;;;13.40;99.90;;;;;;6217810;22;20015;-78
2022/10/06 05:48:44;;;;;;;10.05;2.22;;;13.40;99.90;;;;;;6242746;22;20011;-79
2022/10/06 05:51:10;;;;;;;12.13;2.35;;;13.40;99.90;;;;;;6217331;22;20339;-79
2022/10/06 05:53:36;;;;;;;12.20;2.63;;;13.40;99.90;;;;;;6268126;22;20026;-80
2022/10/06 05:56:16;;;;;;;12.27;2.35;;;13.40;99.90;;;;;;6267728;22;20768;-80
2022/10/06 05:58:44;;;;;;;8.77;2.17;;;13.40;99.90;;;;;;6243563;22;20020;-79
2022/10/06 06:01:17;;;;;;;11.48;2.25;;;13.30;99.90;;;;;;6243214;22;20019;-78
2022/10/06 06:03:47;;;;;;;10.38;2.42;;;13.40;99.90;;;;;;6242862;22;20023;-79
2022/10/06 06:06:23;;;;;;;10.85;2.15;;;13.40;99.90;;;;;;6268047;22;20073;-79
2022/10/06 06:08:57;;;;;;;11.35;2.13;;;13.40;99.90;;;;;;6242387;22;20431;-79
2022/10/06 06:11:26;;;;;;;8.25;2.05;;;13.30;99.90;;;;;;6242440;22;20020;-78
2022/10/06 06:13:56;;;;;;;8.77;2.47;;;13.30;99.90;;;;;;6242789;22;20024;-78
2022/10/06 06:16:23;;;;;;;20.83;2.88;;;13.30;99.90;;;;;;6242973;22;20458;-78
2022/10/06 06:18:49;;;;;;;17.02;2.83;;;13.30;99.90;;;;;;6267505;22;20030;-78
2022/10/06 06:21:15;;;;;;;13.48;1.70;;;13.30;99.90;;;;;;6267094;22;20016;-79
2022/10/06 06:23:45;;;;;;;10.63;2.20;;;13.30;99.90;;;;;;6243421;22;20027;-78
2022/10/06 06:26:24;;;;;;;14.38;2.67;;;13.30;99.90;;;;;;6268542;22;20025;-78
2022/10/06 06:28:52;;;;;;;14.38;2.40;;;13.30;99.90;;;;;;6242444;22;20443;-78
2022/10/06 06:31:20;;;;;;;9.63;2.30;;;13.30;99.90;;;;;;6242316;22;20020;-78
2022/10/06 06:33:47;;;;;;;14.10;3.22;;;13.30;99.90;;;;;;6265541;22;20016;-78
2022/10/06 06:36:21;;;;;;;9.75;2.22;;;13.30;99.90;;;;;;6216650;22;20055;-78
2022/10/06 06:38:50;;;;;;;11.55;2.05;;;13.30;99.90;;;;;;6241575;22;20094;-79
2022/10/06 06:41:18;;;;;;;9.02;2.17;;;13.30;99.90;;;;;;6242598;22;20321;-78
2022/10/06 06:43:47;;;;;;;9.85;2.33;;;13.40;99.90;;;;;;6244898;22;20023;-79
2022/10/06 06:46:14;;;;;;;11.05;2.45;;;13.40;99.90;;;;;;6220271;22;20126;-78
2022/10/06 06:48:41;;;;;;;12.95;2.45;;;13.30;99.90;;;;;;6245574;22;20024;-78
2022/10/06 06:51:10;;;;;;;10.73;2.58;;;13.30;99.90;;;;;;6270962;22;20055;-78
2022/10/06 06:53:36;;;;;;;11.50;2.25;;;13.30;99.90;;;;;;6270309;22;20023;-79
2022/10/06 06:56:03;;;;;;;11.50;2.42;;;13.30;99.90;;;;;;6244845;22;20011;-79
2022/10/06 06:58:29;;;;;;;9.00;2.13;;;13.40;99.90;;;;;;6245312;22;20045;-79
2022/10/06 07:01:07;;;;;;;11.55;2.53;;;12.80;99.90;;;;;;6271121;22;20034;-79
2022/10/06 07:03:32;;;;;;;8.73;2.50;;;13.40;99.90;;;;;;6244392;22;20074;-79
2022/10/06 07:06:08;;;;;;;10.70;2.30;;;13.40;99.90;;;;;;6245744;22;20015;-80
2022/10/06 07:08:38;;;;;;;9.52;2.10;;;13.40;99.90;;;;;;6270273;22;20483;-79
2022/10/06 07:11:22;;;;;;;7.03;2.10;;;13.40;99.90;;;;;;6246191;22;20019;-79
2022/10/06 07:13:53;;;;;;;12.43;2.00;;;13.40;99.90;;;;;;6270587;22;20019;-79
2022/10/06 07:27:27;;;;;;;9.30;1.73;;;13.50;99.90;;;;;;6244527;22;20023;-78
2022/10/06 07:29:53;;;;;;;9.18;2.28;;;13.50;99.90;;;;;;6194978;22;20016;-79
2022/10/06 07:32:29;;;;;;;9.70;2.28;;;13.60;99.90;;;;;;6243628;22;20474;-79
2022/10/06 07:34:57;;;;;;;10.02;1.85;;;13.50;99.90;;;;;;6244269;22;20072;-79
2022/10/06 07:37:23;;;;;;;10.30;1.90;;;13.60;99.90;;;;;;6219710;22;20019;-79
2022/10/06 07:39:48;;;;;;;7.10;1.83;;;13.60;99.90;;;;;;6219329;22;20102;-79
2022/10/06 07:42:16;;;;;;;8.45;1.70;;;13.60;99.90;;;;;;6219111;22;20101;-79
2022/10/06 07:44:43;;;;;;;15.27;3.67;;;13.60;99.90;;;;;;6244430;22;20019;-79
2022/10/06 07:47:09;;;;;;;9.85;2.08;;;13.70;99.90;;;;;;6245132;22;20490;-79
2022/10/06 07:49:34;;;;;;;10.50;2.13;;;13.70;99.90;;;;;;6194143;22;20015;-79
2022/10/06 07:52:01;;;;;;;6.80;1.67;;;13.80;99.90;;;;;;6244437;22;20510;-79
2022/10/06 07:54:27;;;;;;;9.20;1.92;;;13.80;99.90;;;;;;6244273;22;20019;-79
2022/10/06 07:56:54;;;;;;;9.20;1.90;;;13.90;99.90;;;;;;6244703;22;20035;-79
2022/10/06 07:59:20;;;;;;;8.85;2.40;;;14.00;99.90;;;;;;6219399;22;20020;-79
2022/10/06 08:01:46;;;;;;;8.60;1.92;;;14.10;99.90;;;;;;6244700;22;20027;-79
2022/10/06 08:04:12;;;;;;;9.35;2.38;;;14.30;99.90;;;;;;6194394;22;20462;-79
2022/10/06 08:06:38;;;;;;;6.78;1.92;;;14.50;99.90;;;;;;6219477;22;20019;-78
2022/10/06 08:09:05;;;;;;;8.82;2.05;;;14.60;99.90;;;;;;6218626;22;20026;-79
2022/10/06 08:11:31;;;;;;;11.32;2.17;;;14.70;99.90;;;;;;6243862;22;20542;-79
2022/10/06 08:13:57;;;;;;;11.48;2.03;;;14.80;99.90;;;;;;6219697;22;20110;-79
2022/10/06 08:16:28;;;;;;;7.15;1.88;;;14.80;99.90;;;;;;6218758;22;20099;-79
2022/10/06 08:18:56;;;;;;;7.32;1.92;;;14.90;99.90;;;;;;6244333;22;20069;-79
2022/10/06 08:21:27;;;;;;;13.63;1.98;;;15.00;99.90;;;;;;6272162;22;20035;-79
2022/10/06 08:23:54;;;;;;;9.40;2.67;;;15.10;99.90;;;;;;6244147;22;20015;-79
2022/10/06 08:26:21;;;;;;;7.72;2.00;;;15.20;99.90;;;;;;6220012;22;20054;-79
2022/10/06 08:28:49;;;;;;;6.90;1.48;;;15.30;99.90;;;;;;6245801;22;20355;-79
2022/10/06 08:31:16;;;;;;;7.95;1.55;;;15.30;99.90;;;;;;6206464;22;20051;-80
2022/10/06 08:33:44;;;;;;;8.63;2.00;;;15.40;99.90;;;;;;6250457;22;20019;-79
2022/10/06 08:36:15;;;;;;;7.10;1.67;;;15.50;99.90;;;;;;6245055;22;20018;-80
2022/10/06 08:38:42;;;;;;;7.50;2.45;;;15.50;99.90;;;;;;6218111;22;20132;-78
2022/10/06 08:41:30;;;;;;;8.30;1.95;;;15.60;99.90;;;;;;6243695;22;20107;-79
2022/10/06 08:44:37;;;;;;;8.73;1.75;;;15.40;99.90;;;;;;6205684;22;20027;-79
2022/10/06 08:47:12;;;;;;;7.72;1.75;;;15.50;99.90;;;;;;6203728;22;20106;-79
2022/10/06 08:49:44;;;;;;;9.10;2.22;;;15.70;99.90;;;;;;6246165;22;20016;-79
2022/10/06 08:52:19;;;;;;;7.72;2.20;;;15.70;99.90;;;;;;6245789;22;20030;-78
2022/10/06 08:55:26;;;;;;;11.65;2.05;;;15.60;99.90;;;;;;6245678;22;20018;-79
2022/10/06 08:58:04;;;;;;;12.80;2.08;;;15.50;99.90;;;;;;6180152;22;20028;-79
2022/10/06 09:00:32;;;;;;;10.45;2.17;;;15.40;99.90;;;;;;6220598;22;20024;-79
2022/10/06 09:02:58;;;;;;;10.02;1.77;;;15.30;99.90;;;;;;6194892;22;20020;-81
2022/10/06 09:05:28;;;;;;;7.53;1.80;;;15.30;99.90;;;;;;6221453;22;20019;-78
2022/10/06 09:08:23;;;;;;;11.13;2.30;;;15.30;99.90;;;;;;6221152;22;20382;-78
2022/10/06 09:11:12;;;;;;;7.97;1.77;;;15.20;99.90;;;;;;6220592;22;20049;-78
2022/10/06 09:14:03;;;;;;;9.65;2.08;;;15.20;99.90;;;;;;6245846;22;20020;-77
2022/10/06 09:16:37;;;;;;;9.88;1.63;;;15.10;99.90;;;;;;6245934;22;20032;-77
2022/10/06 09:19:29;;;;;;;9.15;1.98;;;15.10;99.90;;;;;;6273724;22;20020;-81
2022/10/06 09:21:54;;;;;;;6.80;1.65;;;15.10;99.90;;;;;;6175217;22;20107;-79
2022/10/06 09:24:33;;;;;;;9.43;2.13;;;15.20;99.90;;;;;;6246250;22;20129;-79
2022/10/06 09:26:59;;;;;;;11.32;1.90;;;15.20;99.90;;;;;;6220667;22;20022;-79
2022/10/06 09:29:30;;;;;;;7.70;1.75;;;15.30;99.90;;;;;;6195946;22;20374;-79
2022/10/06 09:31:56;;;;;;;6.53;1.55;;;15.40;99.90;;;;;;6221013;22;20404;-80
2022/10/06 09:34:35;;;;;;;11.05;1.50;;;15.50;99.90;;;;;;6220998;22;20019;-80
2022/10/06 09:37:11;;;;;;;8.30;2.05;;;15.50;99.90;;;;;;6246514;22;20051;-79
2022/10/06 09:39:40;;;;;;;7.47;1.90;;;15.60;99.90;;;;;;6272954;22;20053;-80
2022/10/06 09:42:08;;;;;;;5.95;1.40;;;15.70;99.90;;;;;;6245280;22;20098;-79
2022/10/06 09:45:01;;;;;;;12.02;2.20;;;15.70;99.90;;;;;;6220612;22;20055;-79
2022/10/06 09:47:34;;;;;;;5.50;1.40;;;15.80;99.90;;;;;;6221415;22;20102;-79
2022/10/06 09:50:15;;;;;;;7.90;1.67;;;15.70;99.90;;;;;;6245597;22;20019;-79
2022/10/06 09:52:43;;;;;;;8.05;1.83;;;15.70;99.90;;;;;;6244918;22;20016;-79
2022/10/06 09:55:16;;;;;;;13.27;1.90;;;15.70;99.90;;;;;;6220944;22;20020;-79
2022/10/06 09:57:54;;;;;;;6.20;1.67;;;15.70;99.90;;;;;;6245547;22;20026;-79
2022/10/06 10:00:44;;;;;;;6.45;1.70;;;15.70;99.90;;;;;;6246475;22;20107;-79
2022/10/06 10:03:13;;;;;;;9.68;1.85;;;15.60;99.90;;;;;;6246292;22;20019;-80
2022/10/06 10:05:47;;;;;;;7.82;1.50;;;15.50;99.90;;;;;;6221226;22;20031;-80
2022/10/06 10:08:12;;;;;;;8.65;1.90;;;15.50;99.90;;;;;;6245332;22;20046;-80
2022/10/06 10:10:39;;;;;;;8.35;1.83;;;15.40;99.90;;;;;;6245567;22;20094;-80
2022/10/06 10:13:25;;;;;;;6.00;1.60;;;15.50;99.90;;;;;;6245543;22;20023;-80
2022/10/06 10:16:02;;;;;;;5.75;1.65;;;15.50;99.90;;;;;;6219637;22;20455;-80
2022/10/06 10:18:30;;;;;;;8.55;1.60;;;15.40;99.90;;;;;;6195068;22;20326;-80
2022/10/06 10:21:07;;;;;;;9.90;1.65;;;15.40;99.90;;;;;;6224805;22;20020;-81
2022/10/06 10:23:37;;;;;;;6.97;1.30;;;15.40;99.90;;;;;;6244839;22;20027;-80
2022/10/06 10:26:16;;;;;;;6.82;1.63;;;15.40;99.90;;;;;;6270326;22;20077;-79
2022/10/06 10:29:04;;;;;;;6.25;1.55;;;15.40;99.90;;;;;;6244335;22;20016;-79
2022/10/06 10:31:32;;;;;;;10.27;1.90;;;15.40;99.90;;;;;;6244123;22;20098;-78
2022/10/06 10:34:04;;;;;;;5.82;1.90;;;15.40;99.90;;;;;;6267622;22;20487;-78
2022/10/06 10:36:38;;;;;;;9.93;1.55;;;15.40;99.90;;;;;;6269141;22;20365;-79
2022/10/06 10:39:11;;;;;;;6.95;1.80;;;15.40;99.90;;;;;;6242599;22;20022;-79
2022/10/06 10:41:48;;;;;;;8.13;1.67;;;15.40;99.90;;;;;;6242020;22;20042;-78
2022/10/06 10:44:26;;;;;;;8.45;1.50;;;15.40;99.90;;;;;;6243683;22;20085;-78
2022/10/06 10:47:06;;;;;;;12.48;1.80;;;15.40;99.90;;;;;;6242694;22;20024;-79
2022/10/06 10:49:33;;;;;;;7.97;1.85;;;15.60;99.90;;;;;;6269110;22;20089;-79
2022/10/06 10:52:19;;;;;;;9.05;2.13;;;15.70;99.90;;;;;;6269583;22;20051;-81
2022/10/06 10:55:13;;;;;;;9.43;2.10;;;16.00;99.90;;;;;;6269748;22;20016;-82
2022/10/06 10:57:40;;;;;;;8.98;2.15;;;16.20;99.90;;;;;;6244840;22;20073;-82
2022/10/06 11:00:16;;;;;;;7.38;2.13;;;16.50;99.90;;;;;;6245781;22;20020;-79
2022/10/06 11:02:42;;;;;;;11.43;2.28;;;16.80;99.90;;;;;;6243287;22;20007;-80
2022/10/06 11:05:16;;;;;;;8.65;1.90;;;17.00;99.90;;;;;;6219775;22;20019;-79
2022/10/06 11:07:54;;;;;;;7.93;1.73;;;17.20;99.90;;;;;;6269789;22;20023;-79
2022/10/06 11:10:25;;;;;;;5.90;1.95;;;17.40;99.90;;;;;;6270748;22;20035;-78
2022/10/06 11:13:15;;;;;;;6.82;1.63;;;17.80;99.90;;;;;;6269171;22;20016;-79
2022/10/06 11:16:18;;;;;;;8.02;1.98;;;18.30;99.90;;;;;;6243998;22;20015;-79
2022/10/06 11:19:14;;;;;;;10.35;2.15;;;18.80;99.90;;;;;;6270334;22;20027;-79
2022/10/06 11:22:02;;;;;;;8.07;2.13;;;19.40;99.90;;;;;;6268836;22;20078;-79
2022/10/06 11:24:46;;;;;;;6.13;1.92;;;19.90;99.90;;;;;;6268625;22;20019;-79
2022/10/06 11:27:41;;;;;;;9.77;2.17;;;20.30;99.90;;;;;;6244493;22;20081;-79
2022/10/06 11:30:25;;;;;;;5.82;1.73;;;20.90;99.90;;;;;;6270766;22;20020;-79
2022/10/06 11:33:12;;;;;;;9.00;1.80;;;21.10;99.90;;;;;;6268827;22;20020;-80
2022/10/06 11:35:42;;;;;;;8.55;1.77;;;21.50;99.90;;;;;;6269060;22;20023;-80
2022/10/06 11:38:33;;;;;;;8.18;1.90;;;21.80;99.60;;;;;;6269915;22;20386;-79
2022/10/06 11:41:12;;;;;;;9.25;2.10;;;22.10;98.80;;;;;;6244801;22;20149;-80
2022/10/06 11:43:38;;;;;;;12.20;2.70;;;22.10;98.30;;;;;;6269497;22;20020;-79
2022/10/06 11:46:04;;;;;;;9.73;2.33;;;22.60;98.10;;;;;;6243852;22;20034;-80
2022/10/06 11:48:31;;;;;;;11.88;2.80;;;22.70;97.80;;;;;;6245023;22;20015;-80
2022/10/06 11:51:27;;;;;;;11.25;2.22;;;23.00;97.60;;;;;;6219234;22;20047;-79
2022/10/06 11:53:54;;;;;;;7.32;1.65;;;23.10;96.50;;;;;;6250809;22;20027;-80
2022/10/06 11:56:20;;;;;;;7.63;2.00;;;23.00;97.00;;;;;;6245658;22;20015;-80
2022/10/06 11:58:55;;;;;;;6.05;1.50;;;22.90;96.80;;;;;;6244295;22;20026;-80
2022/10/06 12:01:30;;;;;;;10.63;1.80;;;22.90;96.20;;;;;;6270151;22;20019;-80
2022/10/06 12:04:07;;;;;;;9.63;1.93;;;22.80;96.10;;;;;;6244718;22;20027;-80
2022/10/06 12:09:30;;;;;;;10.73;2.33;;;22.40;96.60;;;;;;6275732;22;20024;-80
2022/10/06 12:12:24;;;;;;;7.05;1.67;;;22.40;97.00;;;;;;6243910;22;20261;-80
2022/10/06 12:15:15;;;;;;;5.50;1.33;;;22.40;96.80;;;;;;6210573;22;20023;-79
2022/10/06 12:18:03;;;;;;;9.38;1.58;;;22.70;97.00;;;;;;6246255;22;20023;-79
2022/10/06 12:21:05;;;;;;;10.38;2.00;;;22.70;95.90;;;;;;6248012;22;20027;-80
2022/10/06 12:23:44;;;;;;;8.07;1.98;;;22.60;96.00;;;;;;6247992;22;20012;-80
2022/10/06 12:26:55;;;;;;;7.35;1.75;;;22.40;96.00;;;;;;6222665;22;20019;-80
2022/10/06 12:29:42;;;;;;;9.38;2.15;;;22.00;96.00;;;;;;6241659;22;20019;-80
2022/10/06 12:32:49;;;;;;;8.90;1.98;;;22.30;96.90;;;;;;6247688;22;20561;-79
2022/10/06 12:35:27;;;;;;;9.65;1.90;;;22.40;96.40;;;;;;6214191;22;20020;-80
2022/10/06 12:37:55;;;;;;;5.57;1.80;;;22.30;96.40;;;;;;6247264;22;20016;-80
2022/10/06 12:40:51;;;;;;;6.20;1.85;;;22.30;96.90;;;;;;6172523;22;20027;-79
2022/10/06 12:43:16;;;;;;;6.95;2.33;;;22.40;95.70;;;;;;6222113;22;20095;-80
2022/10/06 12:45:43;;;;;;;9.55;1.90;;;22.10;96.40;;;;;;6222450;22;20081;-79
2022/10/06 12:48:34;;;;;;;6.45;1.67;;;22.20;96.60;;;;;;6247928;22;20019;-79
2022/10/06 12:51:06;;;;;;;5.93;1.50;;;22.00;96.60;;;;;;6247281;22;20047;-80
2022/10/06 12:53:51;;;;;;;13.73;2.00;;;22.10;97.00;;;;;;6222517;22;20113;-80
2022/10/06 12:56:28;;;;;;;9.50;2.20;;;22.00;96.40;;;;;;6247724;22;20015;-80
2022/10/06 12:58:54;;;;;;;12.73;2.45;;;21.90;96.70;;;;;;6222421;22;20023;-83
2022/10/06 13:01:21;;;;;;;9.35;2.35;;;21.80;97.30;;;;;;6247402;22;20047;-83
2022/10/06 13:03:49;;;;;;;7.03;1.73;;;21.70;97.10;;;;;;6247661;22;20103;-84
2022/10/06 13:06:21;;;;;;;6.55;1.77;;;21.70;96.90;;;;;;6247904;22;20059;-80
2022/10/06 13:09:02;;;;;;;8.70;2.00;;;21.60;96.90;;;;;;6221532;22;20011;-81
2022/10/06 13:11:28;;;;;;;7.65;1.73;;;21.60;97.20;;;;;;6222385;22;20061;-80
2022/10/06 13:13:57;;;;;;;5.28;1.63;;;21.40;97.30;;;;;;6197466;22;20020;-80
2022/10/06 13:16:33;;;;;;;12.38;2.20;;;21.40;97.50;;;;;;6222649;22;20038;-80
2022/10/06 13:19:00;;;;;;;7.65;1.83;;;21.30;97.60;;;;;;6197415;22;20047;-80
2022/10/06 13:21:28;;;;;;;10.10;2.42;;;21.30;97.80;;;;;;6206974;22;20451;-80